createdAt,value
2023-02-22T00:04:08.454Z,16.2
2023-02-22T00:10:13.986Z,16.1
2023-02-22T00:16:19.655Z,16.1
2023-02-22T00:22:25.362Z,16.1
2023-02-22T00:28:30.809Z,16.1
2023-02-22T00:34:35.688Z,16.1
2023-02-22T00:40:41.050Z,16.1
2023-02-22T00:46:46.228Z,16.1
2023-02-22T00:52:50.964Z,16.1
2023-02-22T00:58:56.377Z,16.1
2023-02-22T01:05:02.144Z,16.1
2023-02-22T01:11:07.704Z,16.1
2023-02-22T01:17:13.071Z,16.1
2023-02-22T01:23:18.430Z,16.1
2023-02-22T01:29:23.789Z,16.1
2023-02-22T01:35:29.299Z,16.1
2023-02-22T01:41:34.952Z,16
2023-02-22T01:47:40.303Z,16
2023-02-22T01:53:45.581Z,16.1
2023-02-22T01:59:50.461Z,16
2023-02-22T02:05:56.192Z,16
2023-02-22T02:12:01.575Z,16
2023-02-22T02:18:06.861Z,16
2023-02-22T02:24:12.224Z,16
2023-02-22T02:30:17.798Z,16
2023-02-22T02:36:23.407Z,16
2023-02-22T02:42:28.793Z,16
2023-02-22T02:48:34.106Z,16
2023-02-22T02:54:39.485Z,16
2023-02-22T03:00:44.511Z,16
2023-02-22T03:06:50.321Z,15.9
2023-02-22T03:12:56.067Z,15.9
2023-02-22T03:19:01.429Z,15.9
2023-02-22T03:25:07.033Z,15.9
2023-02-22T03:31:12.484Z,15.9
2023-02-22T03:37:18.187Z,15.9
2023-02-22T03:43:23.124Z,15.9
2023-02-22T03:49:27.997Z,15.9
2023-02-22T03:55:33.420Z,15.9
2023-02-22T04:01:38.723Z,15.9
2023-02-22T04:07:43.947Z,15.9
2023-02-22T04:13:48.702Z,15.9
2023-02-22T04:19:54.042Z,15.9
2023-02-22T04:25:59.647Z,15.9
2023-02-22T04:32:04.852Z,15.8
2023-02-22T04:38:10.152Z,15.8
2023-02-22T04:44:15.127Z,15.9
2023-02-22T04:50:20.309Z,15.9
2023-02-22T04:56:25.047Z,15.9
2023-02-22T05:02:29.976Z,15.9
2023-02-22T05:08:35.502Z,15.9
2023-02-22T05:14:40.534Z,15.9
2023-02-22T05:20:45.508Z,16
2023-02-22T05:26:50.872Z,16
2023-02-22T05:32:55.828Z,16
2023-02-22T05:39:01.130Z,16
2023-02-22T05:45:06.473Z,16
2023-02-22T05:51:12.076Z,16
2023-02-22T05:57:17.440Z,16
2023-02-22T06:03:22.574Z,16
2023-02-22T06:09:27.632Z,16
2023-02-22T06:15:32.760Z,16
2023-02-22T06:21:38.165Z,16
2023-02-22T06:27:43.085Z,16
2023-02-22T06:33:48.226Z,16
2023-02-22T06:39:53.227Z,15.9
2023-02-22T06:45:57.993Z,15.9
2023-02-22T06:52:03.469Z,15.9
2023-02-22T06:58:08.853Z,15.9
2023-02-22T07:04:14.428Z,15.9
2023-02-22T07:10:19.410Z,15.9
2023-02-22T07:16:24.468Z,15.9
2023-02-22T07:22:30.388Z,15.9
2023-02-22T07:28:35.685Z,15.9
2023-02-22T07:34:41.049Z,15.9
2023-02-22T07:40:47.252Z,15.9
2023-02-22T07:46:52.792Z,15.9
2023-02-22T07:52:58.226Z,16
2023-02-22T07:59:04.175Z,16
2023-02-22T08:05:09.933Z,16
2023-02-22T08:11:15.606Z,16
2023-02-22T08:17:22.121Z,16
2023-02-22T08:23:27.322Z,16
2023-02-22T08:29:32.704Z,16
2023-02-22T08:35:38.069Z,16
2023-02-22T08:41:43.445Z,16.1
2023-02-22T08:47:48.926Z,16.1
2023-02-22T08:53:54.175Z,16.1
2023-02-22T08:59:59.305Z,16.1
2023-02-22T09:06:04.644Z,16.1
2023-02-22T09:12:10.198Z,16.1
2023-02-22T09:18:15.370Z,16.1
2023-02-22T09:24:20.374Z,16.1
2023-02-22T09:30:25.788Z,16.1
2023-02-22T09:36:31.251Z,16.1
2023-02-22T09:42:37.226Z,16.1
2023-02-22T09:48:42.253Z,16.1
2023-02-22T09:54:48.022Z,16.1
2023-02-22T10:00:54.140Z,16.1
2023-02-22T10:06:59.304Z,16.1
2023-02-22T10:13:04.135Z,16.2
2023-02-22T10:19:09.524Z,16.2
2023-02-22T10:25:14.876Z,16.2
2023-02-22T10:31:20.582Z,16.2
2023-02-22T10:37:27.009Z,16.2
2023-02-22T10:43:32.604Z,16.2
2023-02-22T10:49:38.318Z,16.2
2023-02-22T10:55:43.576Z,16.2
2023-02-22T11:01:49.580Z,16.2
2023-02-22T11:07:55.543Z,16.2
2023-02-22T11:14:01.008Z,16.2
2023-02-22T11:20:06.037Z,16.2
2023-02-22T11:26:11.333Z,16.2
2023-02-22T11:32:16.534Z,16.2
2023-02-22T11:38:21.722Z,16.3
2023-02-22T11:44:27.455Z,16.3
2023-02-22T11:50:32.662Z,16.3
2023-02-22T11:56:38.514Z,16.3
2023-02-22T12:02:55.528Z,16.3
2023-02-22T12:09:02.013Z,16.3
2023-02-22T12:15:07.394Z,16.3
2023-02-22T12:21:13.153Z,16.3
2023-02-22T12:27:18.437Z,16.3
2023-02-22T12:33:24.185Z,16.3
2023-02-22T12:39:29.373Z,16.3
2023-02-22T12:45:54.977Z,16.3
2023-02-22T12:52:07.007Z,16.3
2023-02-22T12:58:26.551Z,16.3
2023-02-22T13:04:31.594Z,16.3
2023-02-22T13:10:36.530Z,16.3
2023-02-22T13:16:41.812Z,16.3
2023-02-22T13:22:47.384Z,16.3
2023-02-22T13:28:52.911Z,16.3
2023-02-22T13:34:58.321Z,16.3
2023-02-22T13:41:03.905Z,16.3
2023-02-22T13:47:09.315Z,16.3
2023-02-22T13:53:15.031Z,16.3
2023-02-22T13:59:20.859Z,16.4
2023-02-22T14:05:26.050Z,16.4
2023-02-22T14:11:35.049Z,16.4
2023-02-22T14:17:40.384Z,16.4
2023-02-22T14:23:45.967Z,16.4
2023-02-22T14:29:51.425Z,16.4
2023-02-22T14:35:56.139Z,16.4
2023-02-22T14:42:01.756Z,16.5
2023-02-22T14:48:07.081Z,16.5
2023-02-22T14:54:13.008Z,16.5
2023-02-22T15:00:18.579Z,16.5
2023-02-22T15:06:23.731Z,16.5
2023-02-22T15:12:28.953Z,16.5
2023-02-22T15:18:33.940Z,16.5
2023-02-22T15:24:39.223Z,16.5
2023-02-22T15:30:43.908Z,16.5
2023-02-22T15:36:49.551Z,16.5
2023-02-22T15:42:54.917Z,16.5
2023-02-22T15:49:00.496Z,16.5
2023-02-22T15:55:05.292Z,16.5
2023-02-22T16:01:10.308Z,16.5
2023-02-22T16:07:15.664Z,16.5
2023-02-22T16:13:30.789Z,16.5
2023-02-22T16:19:37.154Z,16.5
2023-02-22T16:25:46.055Z,16.5
2023-02-22T16:31:50.696Z,16.5
2023-02-22T16:37:56.627Z,16.5
2023-02-22T16:44:01.640Z,16.5
2023-02-22T16:50:07.190Z,16.5
2023-02-22T16:56:12.075Z,16.5
2023-02-22T17:02:18.275Z,16.5
2023-02-22T17:08:23.031Z,16.5
2023-02-22T17:14:28.021Z,16.5
2023-02-22T17:20:33.370Z,16.5
2023-02-22T17:26:38.924Z,16.5
2023-02-22T17:32:44.488Z,16.5
2023-02-22T17:38:50.160Z,16.5
2023-02-22T17:44:55.768Z,16.5
2023-02-22T17:51:01.247Z,16.5
2023-02-22T17:57:06.589Z,16.5
2023-02-22T18:03:11.903Z,16.5
2023-02-22T18:09:17.845Z,16.5
2023-02-22T18:15:24.045Z,16.5
2023-02-22T18:21:29.202Z,16.5
2023-02-22T18:27:34.577Z,16.4
2023-02-22T18:33:40.011Z,16.4
2023-02-22T18:39:45.714Z,16.4
2023-02-22T18:45:50.881Z,16.4
2023-02-22T18:51:55.889Z,16.4
2023-02-22T18:58:01.444Z,16.4
2023-02-22T19:04:06.581Z,16.4
2023-02-22T19:10:11.392Z,16.4
2023-02-22T19:16:17.158Z,16.4
2023-02-22T19:22:24.114Z,16.4
2023-02-22T19:28:30.107Z,16.4
2023-02-22T19:34:35.708Z,16.4
2023-02-22T19:40:41.018Z,16.4
2023-02-22T19:46:47.601Z,16.4
2023-02-22T19:52:53.459Z,16.4
2023-02-22T19:58:59.022Z,16.4
2023-02-22T20:05:04.657Z,16.4
2023-02-22T20:11:09.773Z,16.4
2023-02-22T20:17:14.942Z,16.4
2023-02-22T20:23:20.433Z,16.4
2023-02-22T20:29:25.210Z,16.4
2023-02-22T20:35:30.548Z,16.4
2023-02-22T20:41:35.748Z,16.4
2023-02-22T20:47:41.710Z,16.4
2023-02-22T20:53:46.935Z,16.4
2023-02-22T20:59:52.303Z,16.4
2023-02-22T21:05:58.075Z,16.4
2023-02-22T21:12:03.678Z,16.4
2023-02-22T21:18:09.269Z,16.4
2023-02-22T21:24:14.720Z,16.4
2023-02-22T21:30:19.905Z,16.4
2023-02-22T21:36:25.690Z,16.4
2023-02-22T21:42:31.538Z,16.4
2023-02-22T21:48:36.643Z,16.4
2023-02-22T21:54:42.644Z,16.4
2023-02-22T22:00:47.227Z,16.4
2023-02-22T22:06:52.557Z,16.4
2023-02-22T22:12:57.883Z,16.4
2023-02-22T22:19:03.904Z,16.4
2023-02-22T22:25:08.880Z,16.3
2023-02-22T22:31:14.149Z,16.4
2023-02-22T22:37:20.625Z,16.3
2023-02-22T22:43:26.152Z,16.3
2023-02-22T22:49:31.673Z,16.3
2023-02-22T22:55:37.688Z,16.3
2023-02-22T23:01:42.894Z,16.3
2023-02-22T23:07:48.274Z,16.3
2023-02-22T23:13:53.624Z,16.3
2023-02-22T23:19:59.573Z,16.3
2023-02-22T23:26:04.928Z,16.3
2023-02-22T23:32:10.872Z,16.3
2023-02-22T23:38:16.903Z,16.3
2023-02-22T23:44:21.708Z,16.3
2023-02-22T23:50:26.661Z,16.3
2023-02-22T23:56:32.177Z,16.3
